createdAt,value
2019-05-16T00:00:01.701Z,979.55
2019-05-16T00:01:01.664Z,979.55
2019-05-16T00:02:01.598Z,979.52
2019-05-16T00:03:01.576Z,979.51
2019-05-16T00:04:01.381Z,979.52
2019-05-16T00:05:01.386Z,979.48
2019-05-16T00:06:01.217Z,979.46
2019-05-16T00:07:01.193Z,979.47
2019-05-16T00:08:01.065Z,979.46
2019-05-16T00:09:01.003Z,979.43
2019-05-16T00:10:00.904Z,979.43
2019-05-16T00:11:00.923Z,979.41
2019-05-16T00:12:00.747Z,979.43
2019-05-16T00:13:00.723Z,979.38
2019-05-16T00:14:00.587Z,979.37
2019-05-16T00:15:00.532Z,979.35
2019-05-16T00:16:00.429Z,979.34
2019-05-16T00:17:00.441Z,979.31
2019-05-16T00:18:00.266Z,979.29
2019-05-16T00:19:00.255Z,979.30
2019-05-16T00:20:00.112Z,979.26
2019-05-16T00:21:00.061Z,979.28
2019-05-16T00:21:59.952Z,979.23
2019-05-16T00:22:59.972Z,979.27
2019-05-16T00:23:59.793Z,979.24
2019-05-16T00:24:59.781Z,979.24
2019-05-16T00:25:59.630Z,979.21
2019-05-16T00:26:59.592Z,979.19
2019-05-16T00:27:59.474Z,979.18
2019-05-16T00:28:59.503Z,979.17
2019-05-16T00:29:59.312Z,979.13
2019-05-16T00:30:59.425Z,979.16
2019-05-16T00:31:59.156Z,979.13
2019-05-16T00:32:59.121Z,979.11
2019-05-16T00:33:58.994Z,979.11
2019-05-16T00:34:59.032Z,979.10
2019-05-16T00:36:05.182Z,979.07
2019-05-16T00:36:58.840Z,979.09
2019-05-16T00:37:59.132Z,979.09
2019-05-16T00:38:58.650Z,979.08
2019-05-16T00:39:58.928Z,979.04
2019-05-16T00:40:59.028Z,979.04
2019-05-16T00:41:58.515Z,979.00
2019-05-16T00:42:59.049Z,979.03
2019-05-16T00:43:58.200Z,978.98
2019-05-16T00:44:58.512Z,978.95
2019-05-16T00:45:58.907Z,978.96
2019-05-16T00:46:58.203Z,978.95
2019-05-16T00:47:58.456Z,978.93
2019-05-16T00:48:58.913Z,978.94
2019-05-16T00:49:58.203Z,978.92
2019-05-16T00:50:58.429Z,978.94
2019-05-16T00:51:58.477Z,978.89
2019-05-16T00:52:59.061Z,978.90
2019-05-16T00:53:58.847Z,978.89
2019-05-16T00:54:58.002Z,978.87
2019-05-16T00:55:58.476Z,978.85
2019-05-16T00:56:57.785Z,978.87
2019-05-16T00:57:58.374Z,978.84
2019-05-16T00:58:58.735Z,978.82
2019-05-16T00:59:59.022Z,978.81
2019-05-16T01:00:59.164Z,978.81
2019-05-16T01:01:58.783Z,978.79
2019-05-16T01:02:57.865Z,978.75
2019-05-16T01:03:58.606Z,978.73
2019-05-16T01:04:58.842Z,978.75
2019-05-16T01:05:58.242Z,978.76
2019-05-16T01:06:58.560Z,978.73
2019-05-16T01:07:58.355Z,978.72
2019-05-16T01:08:57.961Z,978.70
2019-05-16T01:09:58.167Z,978.69
2019-05-16T01:10:58.503Z,978.69
2019-05-16T01:11:57.892Z,978.63
2019-05-16T01:12:55.922Z,978.68
2019-05-16T01:13:57.747Z,978.64
2019-05-16T01:14:55.823Z,978.67
2019-05-16T01:15:57.778Z,978.68
2019-05-16T01:16:57.994Z,978.67
2019-05-16T01:17:55.499Z,978.67
2019-05-16T01:18:55.421Z,978.65
2019-05-16T01:19:57.717Z,978.65
2019-05-16T01:20:55.356Z,978.63
2019-05-16T01:21:55.173Z,978.61
2019-05-16T01:22:55.161Z,978.60
2019-05-16T01:23:55.014Z,978.58
2019-05-16T01:24:54.978Z,978.56
2019-05-16T01:25:54.857Z,978.58
2019-05-16T01:26:54.893Z,978.59
2019-05-16T01:27:54.698Z,978.49
2019-05-16T01:28:54.693Z,978.49
2019-05-16T01:29:54.536Z,978.51
2019-05-16T01:30:54.509Z,978.47
2019-05-16T01:31:54.381Z,978.47
2019-05-16T01:32:54.423Z,978.43
2019-05-16T01:33:54.219Z,978.45
2019-05-16T01:34:54.225Z,978.41
2019-05-16T01:35:54.067Z,978.42
2019-05-16T01:36:54.035Z,978.42
2019-05-16T01:37:53.899Z,978.38
2019-05-16T01:38:53.851Z,978.41
2019-05-16T01:39:53.753Z,978.36
2019-05-16T01:40:53.755Z,978.34
2019-05-16T01:41:53.581Z,978.32
2019-05-16T01:42:53.563Z,978.26
2019-05-16T01:43:53.425Z,978.29
2019-05-16T01:44:53.373Z,978.29
2019-05-16T01:45:53.258Z,978.26
2019-05-16T01:46:53.292Z,978.20
2019-05-16T01:47:53.104Z,978.22
2019-05-16T01:48:53.094Z,978.22
2019-05-16T01:49:52.945Z,978.22
2019-05-16T01:50:52.865Z,978.19
2019-05-16T01:51:52.790Z,978.18
2019-05-16T01:52:52.811Z,978.21
2019-05-16T01:53:52.623Z,978.17
2019-05-16T01:54:52.627Z,978.15
2019-05-16T01:55:52.467Z,978.13
2019-05-16T01:56:52.401Z,978.08
2019-05-16T01:57:52.312Z,978.10
2019-05-16T01:58:52.352Z,978.08
2019-05-16T01:59:52.151Z,978.07
2019-05-16T02:01:05.832Z,978.09
2019-05-16T02:01:51.994Z,978.05
2019-05-16T02:02:51.961Z,978.03
2019-05-16T02:03:51.833Z,978.07
2019-05-16T02:04:51.871Z,978.02
2019-05-16T02:05:51.671Z,977.98
2019-05-16T02:06:54.686Z,978.01
2019-05-16T02:07:51.516Z,977.98
2019-05-16T02:08:51.491Z,977.94
2019-05-16T02:09:51.349Z,977.91
2019-05-16T02:10:51.298Z,977.93
2019-05-16T02:11:51.195Z,977.93
2019-05-16T02:12:51.121Z,977.91
2019-05-16T02:13:51.030Z,977.90
2019-05-16T02:14:51.018Z,977.89
2019-05-16T02:15:50.872Z,977.88
2019-05-16T02:16:50.828Z,977.88
2019-05-16T02:17:50.718Z,977.89
2019-05-16T02:18:50.738Z,977.89
2019-05-16T02:19:50.566Z,977.87
2019-05-16T02:20:50.548Z,977.87
2019-05-16T02:21:50.610Z,977.84
2019-05-16T02:22:50.359Z,977.81
2019-05-16T02:23:51.698Z,977.84
2019-05-16T02:24:50.270Z,977.83
2019-05-16T02:25:50.076Z,977.86
2019-05-16T02:26:52.371Z,977.82
2019-05-16T02:27:49.918Z,977.81
2019-05-16T02:28:50.642Z,977.80
2019-05-16T02:29:50.691Z,977.76
2019-05-16T02:30:51.357Z,977.77
2019-05-16T02:31:51.372Z,977.77
2019-05-16T02:32:52.321Z,977.72
2019-05-16T02:33:51.034Z,977.72
2019-05-16T02:34:51.423Z,977.67
2019-05-16T02:35:54.708Z,977.70
2019-05-16T02:37:09.858Z,977.66
2019-05-16T02:37:54.669Z,977.64
2019-05-16T02:38:51.536Z,977.60
2019-05-16T02:39:51.575Z,977.63
2019-05-16T02:40:54.430Z,977.66
2019-05-16T02:41:51.805Z,977.63
2019-05-16T02:42:51.243Z,977.61
2019-05-16T02:43:50.821Z,977.62
2019-05-16T02:44:51.191Z,977.62
2019-05-16T02:45:51.681Z,977.60
2019-05-16T02:46:50.837Z,977.62
2019-05-16T02:47:51.151Z,977.62
2019-05-16T02:48:51.568Z,977.60
2019-05-16T02:49:50.515Z,977.60
2019-05-16T02:50:51.033Z,977.60
2019-05-16T02:51:50.944Z,977.59
2019-05-16T02:52:50.928Z,977.57
2019-05-16T02:53:50.762Z,977.55
2019-05-16T02:54:51.508Z,977.55
2019-05-16T02:55:47.689Z,977.55
2019-05-16T02:56:50.465Z,977.54
2019-05-16T02:57:47.525Z,977.53
2019-05-16T02:58:47.542Z,977.48
2019-05-16T02:59:50.698Z,977.50
2019-05-16T03:00:48.257Z,977.44
2019-05-16T03:01:47.217Z,977.41
2019-05-16T03:02:47.150Z,977.42
2019-05-16T03:03:47.056Z,977.40
2019-05-16T03:04:47.080Z,977.42
2019-05-16T03:05:46.886Z,977.38
2019-05-16T03:06:46.877Z,977.40
2019-05-16T03:07:47.551Z,977.39
2019-05-16T03:08:46.682Z,977.34
2019-05-16T03:09:46.586Z,977.30
2019-05-16T03:10:46.603Z,977.34
2019-05-16T03:11:46.408Z,977.39
2019-05-16T03:12:46.407Z,977.38
2019-05-16T03:13:46.250Z,977.37
2019-05-16T03:14:46.179Z,977.38
2019-05-16T03:15:46.086Z,977.38
2019-05-16T03:16:46.125Z,977.39
2019-05-16T03:17:45.929Z,977.35
2019-05-16T03:18:45.932Z,977.37
2019-05-16T03:19:45.769Z,977.34
2019-05-16T03:20:45.740Z,977.36
2019-05-16T03:21:45.610Z,977.41
2019-05-16T03:22:45.552Z,977.38
2019-05-16T03:23:45.450Z,977.35
2019-05-16T03:24:45.461Z,977.35
2019-05-16T03:25:45.303Z,977.38
2019-05-16T03:26:45.273Z,977.31
2019-05-16T03:27:45.139Z,977.32
2019-05-16T03:28:45.078Z,977.28
2019-05-16T03:29:44.982Z,977.23
2019-05-16T03:30:45.547Z,977.23
2019-05-16T03:31:45.599Z,977.20
2019-05-16T03:32:46.094Z,977.18
2019-05-16T03:33:56.399Z,977.21
2019-05-16T03:34:44.721Z,977.21
2019-05-16T03:35:45.249Z,977.20
2019-05-16T03:36:44.536Z,977.21
2019-05-16T03:37:55.144Z,977.21
2019-05-16T03:38:44.260Z,977.20
2019-05-16T03:39:44.233Z,977.19
2019-05-16T03:40:44.098Z,977.21
2019-05-16T03:41:44.044Z,977.20
2019-05-16T03:42:43.958Z,977.20
2019-05-16T03:43:43.960Z,977.18
2019-05-16T03:44:43.776Z,977.17
2019-05-16T03:45:43.763Z,977.17
2019-05-16T03:46:43.615Z,977.15
2019-05-16T03:47:43.598Z,977.12
2019-05-16T03:48:43.459Z,977.13
2019-05-16T03:49:43.486Z,977.17
2019-05-16T03:50:43.298Z,977.14
2019-05-16T03:51:43.296Z,977.14
2019-05-16T03:52:43.987Z,977.17
2019-05-16T03:53:43.104Z,977.18
2019-05-16T03:54:42.978Z,977.15
2019-05-16T03:55:43.026Z,977.18
2019-05-16T03:56:42.817Z,977.17
2019-05-16T03:57:42.822Z,977.18
2019-05-16T03:58:42.655Z,977.20
2019-05-16T03:59:42.633Z,977.22
2019-05-16T04:00:45.763Z,977.19
2019-05-16T04:01:42.445Z,977.19
2019-05-16T04:02:45.798Z,977.20
2019-05-16T04:03:42.363Z,977.15
2019-05-16T04:04:42.182Z,977.20
2019-05-16T04:05:42.115Z,977.14
2019-05-16T04:06:42.024Z,977.12
2019-05-16T04:07:42.042Z,977.15
2019-05-16T04:08:41.861Z,977.13
2019-05-16T04:09:41.881Z,977.11
2019-05-16T04:10:41.768Z,977.09
2019-05-16T04:11:42.691Z,977.08
2019-05-16T04:12:42.255Z,977.05
2019-05-16T04:13:41.722Z,977.08
2019-05-16T04:14:41.382Z,977.09
2019-05-16T04:15:41.422Z,977.07
2019-05-16T04:16:41.550Z,977.07
2019-05-16T04:17:41.583Z,977.08
2019-05-16T04:18:42.005Z,977.09
2019-05-16T04:19:41.510Z,977.11
2019-05-16T04:20:40.906Z,977.10
2019-05-16T04:21:42.065Z,977.05
2019-05-16T04:22:41.151Z,977.07
2019-05-16T04:23:41.982Z,977.03
2019-05-16T04:24:41.788Z,977.05
2019-05-16T04:25:41.149Z,977.03
2019-05-16T04:26:41.203Z,977.07
2019-05-16T04:27:41.728Z,977.03
2019-05-16T04:28:41.286Z,977.04
2019-05-16T04:29:40.908Z,977.04
2019-05-16T04:30:41.534Z,977.05
2019-05-16T04:31:41.293Z,977.02
2019-05-16T04:32:41.930Z,977.02
2019-05-16T04:33:41.654Z,976.99
2019-05-16T04:34:41.834Z,976.97
2019-05-16T04:35:41.153Z,976.99
2019-05-16T04:36:40.709Z,976.98
2019-05-16T04:37:42.190Z,976.97
2019-05-16T04:38:44.998Z,976.98
2019-05-16T04:39:41.426Z,976.92
2019-05-16T04:40:42.208Z,976.92
2019-05-16T04:41:40.919Z,976.94
2019-05-16T04:42:41.734Z,976.92
2019-05-16T04:43:41.681Z,976.95
2019-05-16T04:44:41.657Z,976.95
2019-05-16T04:45:41.471Z,976.97
2019-05-16T04:46:41.093Z,976.95
2019-05-16T04:47:41.326Z,976.93
2019-05-16T04:48:41.414Z,976.95
2019-05-16T04:49:41.180Z,976.97
2019-05-16T04:50:41.767Z,976.94
2019-05-16T04:51:41.402Z,976.96
2019-05-16T04:52:41.406Z,976.98
2019-05-16T04:53:42.084Z,976.95
2019-05-16T04:54:41.491Z,976.93
2019-05-16T04:55:38.125Z,976.96
2019-05-16T04:56:40.985Z,976.89
2019-05-16T04:57:41.771Z,976.94
2019-05-16T04:58:40.542Z,976.87
2019-05-16T04:59:37.826Z,976.86
2019-05-16T05:00:37.708Z,976.83
2019-05-16T05:01:37.637Z,976.82
2019-05-16T05:02:37.555Z,976.85
2019-05-16T05:03:40.667Z,976.80
2019-05-16T05:04:37.394Z,976.82
2019-05-16T05:05:37.327Z,976.79
2019-05-16T05:06:37.226Z,976.79
2019-05-16T05:07:40.429Z,976.80
2019-05-16T05:08:52.954Z,976.84
2019-05-16T05:09:36.995Z,976.83
2019-05-16T05:10:36.927Z,976.83
2019-05-16T05:11:37.017Z,976.82
2019-05-16T05:12:36.787Z,976.84
2019-05-16T05:13:36.674Z,976.78
2019-05-16T05:14:36.699Z,976.76
2019-05-16T05:15:36.513Z,976.78
2019-05-16T05:16:36.514Z,976.76
2019-05-16T05:17:36.355Z,976.71
2019-05-16T05:18:36.281Z,976.73
2019-05-16T05:19:36.199Z,976.73
2019-05-16T05:20:36.230Z,976.72
2019-05-16T05:21:36.039Z,976.72
2019-05-16T05:22:36.037Z,976.71
2019-05-16T05:23:35.875Z,976.69
2019-05-16T05:24:35.848Z,976.71
2019-05-16T05:25:35.718Z,976.67
2019-05-16T05:26:35.660Z,976.70
2019-05-16T05:27:35.556Z,976.71
2019-05-16T05:28:35.674Z,976.66
2019-05-16T05:29:35.399Z,976.68
2019-05-16T05:30:35.477Z,976.66
2019-05-16T05:31:35.751Z,976.64
2019-05-16T05:32:35.284Z,976.65
2019-05-16T05:33:35.084Z,976.63
2019-05-16T05:34:35.199Z,976.62
2019-05-16T05:35:34.922Z,976.63
2019-05-16T05:36:35.013Z,976.64
2019-05-16T05:37:34.759Z,976.63
2019-05-16T05:38:34.824Z,976.63
2019-05-16T05:39:34.598Z,976.65
2019-05-16T05:40:34.646Z,976.65
2019-05-16T05:41:34.442Z,976.65
2019-05-16T05:42:34.434Z,976.66
2019-05-16T05:43:34.337Z,976.64
2019-05-16T05:44:34.243Z,976.67
2019-05-16T05:45:34.131Z,976.67
2019-05-16T05:46:34.158Z,976.69
2019-05-16T05:47:33.964Z,976.68
2019-05-16T05:48:33.950Z,976.68
2019-05-16T05:49:33.807Z,976.68
2019-05-16T05:50:33.781Z,976.70
2019-05-16T05:51:33.648Z,976.65
2019-05-16T05:52:33.685Z,976.67
2019-05-16T05:53:33.500Z,976.63
2019-05-16T05:54:33.492Z,976.64
2019-05-16T05:55:33.333Z,976.65
2019-05-16T05:56:33.303Z,976.61
2019-05-16T05:57:33.177Z,976.63
2019-05-16T05:58:33.216Z,976.59
2019-05-16T05:59:33.013Z,976.60
2019-05-16T06:00:33.019Z,976.59
2019-05-16T06:01:32.858Z,976.58
2019-05-16T06:02:32.842Z,976.60
2019-05-16T06:03:33.243Z,976.63
2019-05-16T06:04:32.726Z,976.63
2019-05-16T06:05:32.535Z,976.59
2019-05-16T06:06:32.553Z,976.64
2019-05-16T06:07:32.376Z,976.62
2019-05-16T06:08:32.365Z,976.60
2019-05-16T06:09:33.254Z,976.60
2019-05-16T06:10:32.167Z,976.62
2019-05-16T06:11:32.055Z,976.63
2019-05-16T06:12:32.083Z,976.59
2019-05-16T06:13:31.897Z,976.61
2019-05-16T06:14:31.893Z,976.59
2019-05-16T06:15:31.736Z,976.57
2019-05-16T06:16:31.682Z,976.54
2019-05-16T06:17:31.584Z,976.51
2019-05-16T06:18:31.612Z,976.56
2019-05-16T06:19:31.419Z,976.47
2019-05-16T06:20:31.404Z,976.47
2019-05-16T06:21:33.570Z,976.50
2019-05-16T06:22:31.229Z,976.46
2019-05-16T06:23:31.331Z,976.46
2019-05-16T06:24:31.155Z,976.44
2019-05-16T06:25:31.683Z,976.42
2019-05-16T06:26:30.952Z,976.42
2019-05-16T06:27:30.790Z,976.41
2019-05-16T06:28:31.083Z,976.41
2019-05-16T06:29:31.110Z,976.44
2019-05-16T06:30:30.690Z,976.42
2019-05-16T06:31:31.285Z,976.40
2019-05-16T06:32:30.554Z,976.42
2019-05-16T06:33:30.624Z,976.41
2019-05-16T06:34:30.372Z,976.37
2019-05-16T06:35:30.149Z,976.36
2019-05-16T06:36:30.582Z,976.38
2019-05-16T06:37:30.945Z,976.37
2019-05-16T06:38:30.153Z,976.34
2019-05-16T06:39:41.183Z,976.36
2019-05-16T06:40:29.822Z,976.35
2019-05-16T06:41:30.445Z,976.32
2019-05-16T06:42:30.056Z,976.35
2019-05-16T06:43:30.197Z,976.34
2019-05-16T06:44:30.837Z,976.37
2019-05-16T06:45:29.359Z,976.34
2019-05-16T06:46:30.660Z,976.32
2019-05-16T06:47:30.552Z,976.34
2019-05-16T06:48:30.343Z,976.34
2019-05-16T06:49:30.367Z,976.31
2019-05-16T06:50:29.743Z,976.35
2019-05-16T06:51:30.579Z,976.33
2019-05-16T06:52:30.140Z,976.31
2019-05-16T06:53:29.896Z,976.28
2019-05-16T06:54:29.912Z,976.30
2019-05-16T06:55:29.636Z,976.28
2019-05-16T06:56:30.820Z,976.29
2019-05-16T06:57:30.205Z,976.27
2019-05-16T06:58:30.248Z,976.28
2019-05-16T06:59:29.787Z,976.28
2019-05-16T07:00:30.191Z,976.25
2019-05-16T07:01:29.736Z,976.28
2019-05-16T07:02:33.670Z,976.27
2019-05-16T07:03:30.635Z,976.22
2019-05-16T07:04:30.322Z,976.20
2019-05-16T07:05:29.854Z,976.21
2019-05-16T07:06:50.300Z,976.25
2019-05-16T07:07:27.630Z,976.26
2019-05-16T07:08:27.540Z,976.29
2019-05-16T07:09:27.529Z,976.30
2019-05-16T07:10:27.389Z,976.29
2019-05-16T07:11:27.345Z,976.25
2019-05-16T07:12:27.229Z,976.31
2019-05-16T07:13:27.280Z,976.27
2019-05-16T07:14:30.751Z,976.28
2019-05-16T07:15:27.091Z,976.26
2019-05-16T07:16:26.916Z,976.24
2019-05-16T07:17:26.864Z,976.22
2019-05-16T07:18:26.761Z,976.18
2019-05-16T07:19:26.778Z,976.22
2019-05-16T07:20:26.600Z,976.20
2019-05-16T07:21:26.622Z,976.21
2019-05-16T07:22:26.446Z,976.17
2019-05-16T07:23:26.432Z,976.14
2019-05-16T07:24:26.277Z,976.16
2019-05-16T07:25:26.344Z,976.14
2019-05-16T07:26:26.120Z,976.10
2019-05-16T07:27:26.155Z,976.10
2019-05-16T07:28:25.965Z,976.07
2019-05-16T07:29:25.932Z,976.08
2019-05-16T07:30:25.814Z,976.07
2019-05-16T07:31:25.872Z,976.06
2019-05-16T07:32:25.650Z,976.10
2019-05-16T07:33:25.682Z,976.08
2019-05-16T07:34:25.492Z,976.05
2019-05-16T07:35:25.489Z,976.11
2019-05-16T07:36:25.339Z,976.09
2019-05-16T07:37:25.401Z,976.10
2019-05-16T07:38:25.177Z,976.07
2019-05-16T07:39:25.210Z,976.08
2019-05-16T07:40:26.986Z,976.09
2019-05-16T07:41:25.020Z,976.05
2019-05-16T07:42:24.866Z,976.08
2019-05-16T07:43:24.889Z,976.09
2019-05-16T07:44:24.711Z,976.07
2019-05-16T07:45:24.736Z,976.06
2019-05-16T07:46:24.558Z,976.04
2019-05-16T07:47:24.549Z,976.02
2019-05-16T07:48:24.398Z,975.99
2019-05-16T07:49:24.458Z,976.00
2019-05-16T07:50:24.248Z,976.02
2019-05-16T07:51:24.265Z,975.99
2019-05-16T07:52:24.094Z,975.98
2019-05-16T07:53:24.078Z,976.00
2019-05-16T07:54:23.930Z,975.96
2019-05-16T07:55:23.987Z,976.00
2019-05-16T07:56:23.783Z,975.95
2019-05-16T07:57:23.796Z,975.97
2019-05-16T07:58:23.616Z,975.98
2019-05-16T07:59:23.566Z,975.97
2019-05-16T08:00:43.433Z,975.92
2019-05-16T08:01:23.379Z,975.91
2019-05-16T08:02:23.424Z,975.90
2019-05-16T08:03:23.223Z,975.90
2019-05-16T08:04:23.234Z,975.90
2019-05-16T08:05:23.068Z,975.89
2019-05-16T08:06:23.145Z,975.90
2019-05-16T08:07:22.915Z,975.87
2019-05-16T08:08:24.131Z,975.91
2019-05-16T08:09:22.756Z,975.89
2019-05-16T08:10:36.979Z,975.88
2019-05-16T08:11:23.594Z,975.90
2019-05-16T08:12:26.251Z,975.89
2019-05-16T08:13:22.451Z,975.89
2019-05-16T08:14:22.477Z,975.90
2019-05-16T08:15:22.292Z,975.86
2019-05-16T08:16:22.295Z,975.86
2019-05-16T08:17:22.138Z,975.90
2019-05-16T08:18:22.214Z,975.85
2019-05-16T08:19:25.159Z,975.84
2019-05-16T08:20:22.112Z,975.81
2019-05-16T08:21:21.823Z,975.84
2019-05-16T08:22:22.673Z,975.86
2019-05-16T08:23:22.736Z,975.87
2019-05-16T08:24:21.683Z,975.85
2019-05-16T08:25:21.512Z,975.83
2019-05-16T08:26:22.116Z,975.84
2019-05-16T08:27:21.363Z,975.83
2019-05-16T08:28:22.037Z,975.84
2019-05-16T08:29:22.020Z,975.83
2019-05-16T08:30:21.330Z,975.83
2019-05-16T08:32:22.950Z,975.75
2019-05-16T08:33:22.127Z,975.71
2019-05-16T08:34:20.986Z,975.70
2019-05-16T08:35:21.310Z,975.70
2019-05-16T08:36:21.214Z,975.68
2019-05-16T08:37:37.514Z,975.70
2019-05-16T08:38:21.803Z,975.68
2019-05-16T08:40:21.546Z,975.69
2019-05-16T08:42:20.966Z,975.66
2019-05-16T08:43:21.733Z,975.67
2019-05-16T08:44:21.486Z,975.64
2019-05-16T08:45:21.225Z,975.67
2019-05-16T08:46:20.729Z,975.64
2019-05-16T08:47:21.340Z,975.61
2019-05-16T08:48:22.940Z,975.61
2019-05-16T08:49:22.128Z,975.58
2019-05-16T08:50:11.075Z,975.67
2019-05-16T08:51:22.322Z,975.56
2019-05-16T08:52:22.447Z,975.56
2019-05-16T08:53:21.558Z,975.57
2019-05-16T08:54:21.328Z,975.53
2019-05-16T08:55:21.793Z,975.58
2019-05-16T08:56:22.297Z,975.57
2019-05-16T08:57:27.489Z,975.60
2019-05-16T08:58:22.408Z,975.60
2019-05-16T08:59:21.525Z,975.61
2019-05-16T09:00:21.789Z,975.59
2019-05-16T09:01:21.648Z,975.58
2019-05-16T09:02:22.112Z,975.55
2019-05-16T09:03:22.308Z,975.53
2019-05-16T09:04:23.892Z,975.52
2019-05-16T09:05:22.315Z,975.51
2019-05-16T09:06:22.585Z,975.49
2019-05-16T09:07:22.391Z,975.50
2019-05-16T09:08:18.350Z,975.50
2019-05-16T09:09:42.519Z,975.51
2019-05-16T09:10:21.439Z,975.58
2019-05-16T09:10:29.682Z,975.65
2019-05-16T09:10:41.347Z,975.82
2019-05-16T09:11:33.795Z,975.48
2019-05-16T09:12:17.983Z,975.49
2019-05-16T09:13:17.807Z,975.44
2019-05-16T09:14:17.877Z,975.46
2019-05-16T09:15:17.650Z,975.44
2019-05-16T09:16:18.411Z,975.40
2019-05-16T09:17:18.105Z,975.36
2019-05-16T09:18:17.998Z,975.41
2019-05-16T09:19:17.356Z,975.33
2019-05-16T09:20:17.726Z,975.30
2019-05-16T09:21:18.291Z,975.27
2019-05-16T09:22:18.043Z,975.30
2019-05-16T09:23:17.916Z,975.27
2019-05-16T09:24:17.982Z,975.25
2019-05-16T09:25:18.502Z,975.31
2019-05-16T09:26:19.690Z,975.29
2019-05-16T09:27:17.931Z,975.28
2019-05-16T09:28:16.972Z,975.26
2019-05-16T09:29:16.877Z,975.23
2019-05-16T09:30:17.259Z,975.25
2019-05-16T09:31:17.838Z,975.27
2019-05-16T09:32:20.481Z,975.27
2019-05-16T09:33:17.588Z,975.21
2019-05-16T09:34:17.460Z,975.26
2019-05-16T09:35:17.157Z,975.27
2019-05-16T09:36:17.474Z,975.27
2019-05-16T09:37:18.016Z,975.20
2019-05-16T09:38:20.632Z,975.23
2019-05-16T09:39:17.087Z,975.22
2019-05-16T09:40:17.220Z,975.22
2019-05-16T09:41:16.900Z,975.20
2019-05-16T09:42:17.140Z,975.22
2019-05-16T09:43:17.722Z,975.19
2019-05-16T09:44:18.319Z,975.19
2019-05-16T09:45:17.139Z,975.17
2019-05-16T09:46:17.216Z,975.16
2019-05-16T09:47:17.554Z,975.17
2019-05-16T09:48:18.437Z,975.13
2019-05-16T09:49:22.775Z,975.15
2019-05-16T09:50:17.241Z,975.13
2019-05-16T09:51:17.096Z,975.15
2019-05-16T09:52:16.555Z,975.11
2019-05-16T09:53:17.058Z,975.14
2019-05-16T09:54:16.773Z,975.12
2019-05-16T09:55:14.681Z,975.10
2019-05-16T09:56:16.850Z,975.13
2019-05-16T09:57:17.266Z,975.12
2019-05-16T09:58:14.336Z,975.12
2019-05-16T09:59:14.327Z,975.08
2019-05-16T10:00:14.180Z,975.06
2019-05-16T10:01:17.072Z,975.07
2019-05-16T10:02:14.029Z,975.10
2019-05-16T10:03:14.138Z,975.09
2019-05-16T10:04:13.879Z,975.06
2019-05-16T10:05:13.955Z,975.04
2019-05-16T10:06:13.724Z,975.03
2019-05-16T10:07:13.741Z,975.03
2019-05-16T10:08:13.566Z,975.03
2019-05-16T10:09:13.662Z,975.03
2019-05-16T10:10:13.409Z,975.00
2019-05-16T10:11:13.463Z,974.99
2019-05-16T10:12:15.632Z,975.00
2019-05-16T10:13:13.374Z,975.00
2019-05-16T10:14:13.105Z,974.98
2019-05-16T10:15:13.182Z,974.92
2019-05-16T10:16:12.953Z,974.95
2019-05-16T10:17:12.992Z,974.99
2019-05-16T10:18:12.810Z,974.99
2019-05-16T10:19:12.865Z,974.96
2019-05-16T10:20:12.644Z,974.95
2019-05-16T10:21:12.708Z,974.96
2019-05-16T10:22:12.497Z,974.93
2019-05-16T10:23:14.528Z,974.94
2019-05-16T10:24:12.337Z,974.94
2019-05-16T10:25:12.430Z,974.93
2019-05-16T10:26:12.184Z,974.94
2019-05-16T10:27:12.242Z,974.94
2019-05-16T10:28:12.030Z,974.93
2019-05-16T10:29:12.050Z,974.92
2019-05-16T10:30:11.879Z,974.91
2019-05-16T10:31:11.977Z,974.96
2019-05-16T10:32:11.720Z,974.96
2019-05-16T10:33:11.771Z,974.91
2019-05-16T10:34:11.566Z,974.93
2019-05-16T10:35:11.594Z,974.92
2019-05-16T10:36:11.417Z,974.90
2019-05-16T10:37:11.493Z,974.89
2019-05-16T10:38:11.267Z,974.88
2019-05-16T10:39:11.215Z,974.82
2019-05-16T10:40:11.109Z,974.84
2019-05-16T10:41:11.213Z,974.82
2019-05-16T10:42:23.564Z,974.80
2019-05-16T10:43:10.878Z,974.77
2019-05-16T10:44:10.922Z,974.76
2019-05-16T10:45:10.722Z,974.78
2019-05-16T10:46:10.834Z,974.77
2019-05-16T10:47:10.576Z,974.77
2019-05-16T10:48:10.646Z,974.77
2019-05-16T10:49:10.421Z,974.77
2019-05-16T10:50:10.356Z,974.80
2019-05-16T10:51:10.462Z,974.81
2019-05-16T10:52:10.194Z,974.78
2019-05-16T10:53:28.383Z,974.77
2019-05-16T10:54:14.041Z,974.78
2019-05-16T10:55:10.123Z,974.78
2019-05-16T10:56:10.013Z,974.77
2019-05-16T10:57:09.862Z,974.77
2019-05-16T10:58:09.898Z,974.76
2019-05-16T10:59:50.256Z,974.76
2019-05-16T11:00:18.258Z,974.72
2019-05-16T11:01:24.549Z,974.71
2019-05-16T11:02:09.559Z,974.71
2019-05-16T11:03:09.339Z,974.73
2019-05-16T11:04:09.421Z,974.71
2019-05-16T11:05:24.959Z,974.67
2019-05-16T11:06:24.402Z,974.67
2019-05-16T11:07:09.034Z,974.72
2019-05-16T11:08:09.210Z,974.72
2019-05-16T11:09:08.885Z,974.74
2019-05-16T11:10:08.962Z,974.77
2019-05-16T11:11:08.724Z,974.74
2019-05-16T11:12:08.761Z,974.71
2019-05-16T11:13:08.583Z,974.72
2019-05-16T11:14:09.324Z,974.72
2019-05-16T11:15:11.385Z,974.73
2019-05-16T11:16:09.529Z,974.74
2019-05-16T11:17:13.176Z,974.73
2019-05-16T11:18:08.301Z,974.70
2019-05-16T11:19:17.425Z,974.70
2019-05-16T11:20:08.076Z,974.72
2019-05-16T11:21:08.125Z,974.71
2019-05-16T11:22:07.882Z,974.69
2019-05-16T11:23:08.219Z,974.67
2019-05-16T11:24:12.635Z,974.65
2019-05-16T11:25:21.145Z,974.67
2019-05-16T11:26:07.571Z,974.67
2019-05-16T11:27:07.700Z,974.67
2019-05-16T11:28:07.553Z,974.67
2019-05-16T11:29:07.664Z,974.68
2019-05-16T11:30:07.625Z,974.71
2019-05-16T11:31:07.890Z,974.68
2019-05-16T11:32:07.166Z,974.71
2019-05-16T11:33:07.754Z,974.70
2019-05-16T11:34:06.963Z,974.67
2019-05-16T11:35:07.366Z,974.68
2019-05-16T11:36:07.668Z,974.72
2019-05-16T11:37:07.171Z,974.70
2019-05-16T11:38:07.334Z,974.71
2019-05-16T11:39:08.708Z,974.69
2019-05-16T11:40:06.803Z,974.70
2019-05-16T11:41:07.366Z,974.74
2019-05-16T11:42:08.079Z,974.71
2019-05-16T11:43:14.297Z,974.68
2019-05-16T11:44:06.807Z,974.75
2019-05-16T11:45:09.563Z,974.75
2019-05-16T11:46:06.046Z,974.77
2019-05-16T11:47:08.160Z,974.75
2019-05-16T11:48:05.883Z,974.73
2019-05-16T11:49:05.850Z,974.75
2019-05-16T11:50:07.383Z,974.78
2019-05-16T11:51:07.007Z,974.76
2019-05-16T11:52:07.227Z,974.76
2019-05-16T11:53:07.292Z,974.75
2019-05-16T11:54:06.928Z,974.76
2019-05-16T11:55:07.476Z,974.75
2019-05-16T11:56:08.029Z,974.76
2019-05-16T11:57:12.966Z,974.76
2019-05-16T11:58:06.812Z,974.74
2019-05-16T11:59:07.614Z,974.71
2019-05-16T12:00:04.992Z,974.69
2019-05-16T12:01:07.561Z,974.71
2019-05-16T12:02:04.811Z,974.68
2019-05-16T12:03:04.917Z,974.67
2019-05-16T12:04:04.653Z,974.68
2019-05-16T12:05:04.730Z,974.68
2019-05-16T12:06:05.618Z,974.69
2019-05-16T12:07:04.643Z,974.63
2019-05-16T12:08:07.323Z,974.64
2019-05-16T12:09:06.640Z,974.63
2019-05-16T12:10:04.191Z,974.64
2019-05-16T12:11:06.725Z,974.61
2019-05-16T12:12:04.678Z,974.67
2019-05-16T12:13:04.167Z,974.61
2019-05-16T12:14:03.883Z,974.61
2019-05-16T12:15:03.977Z,974.60
2019-05-16T12:16:03.740Z,974.59
2019-05-16T12:17:03.787Z,974.59
2019-05-16T12:18:05.207Z,974.57
2019-05-16T12:19:03.694Z,974.56
2019-05-16T12:20:03.423Z,974.58
2019-05-16T12:21:03.406Z,974.56
2019-05-16T12:22:03.276Z,974.56
2019-05-16T12:23:03.324Z,974.50
2019-05-16T12:24:03.116Z,974.48
2019-05-16T12:25:03.232Z,974.56
2019-05-16T12:26:02.959Z,974.53
2019-05-16T12:27:03.039Z,974.55
2019-05-16T12:28:02.806Z,974.56